createdAt,value
2019-01-04T00:01:30.437Z,68.70
2019-01-04T00:04:03.024Z,68.80
2019-01-04T00:06:33.349Z,68.60
2019-01-04T00:09:03.694Z,68.80
2019-01-04T00:11:36.233Z,68.70
2019-01-04T00:14:06.560Z,69.00
2019-01-04T00:16:36.887Z,69.00
2019-01-04T00:19:07.247Z,69.00
2019-01-04T00:21:37.557Z,68.50
2019-01-04T00:24:09.268Z,68.80
2019-01-04T00:26:39.561Z,68.70
2019-01-04T00:29:09.921Z,68.60
2019-01-04T00:31:40.237Z,69.00
2019-01-04T00:34:11.205Z,69.00
2019-01-04T00:36:41.562Z,68.90
2019-01-04T00:39:11.883Z,69.00
2019-01-04T00:41:42.228Z,68.80
2019-01-04T00:44:12.607Z,68.90
2019-01-04T00:46:43.096Z,69.00
2019-01-04T00:49:13.396Z,69.10
2019-01-04T00:51:43.697Z,69.10
2019-01-04T00:54:15.302Z,69.10
2019-01-04T00:57:30.861Z,69.00
2019-01-04T01:00:56.614Z,69.10
2019-01-04T01:04:07.303Z,68.90
2019-01-04T01:07:20.393Z,68.70
2019-01-04T01:10:47.031Z,69.00
2019-01-04T01:14:03.779Z,68.90
2019-01-04T01:16:59.127Z,69.10
2019-01-04T01:20:09.553Z,69.30
2019-01-04T01:23:35.845Z,69.60
2019-01-04T01:26:51.333Z,69.70
2019-01-04T01:29:58.329Z,69.90
2019-01-04T01:33:17.403Z,70.00
2019-01-04T01:36:11.151Z,70.10
2019-01-04T01:39:16.974Z,70.00
2019-01-04T01:42:30.027Z,70.10
2019-01-04T01:45:40.567Z,70.30
2019-01-04T01:48:30.395Z,70.30
2019-01-04T01:51:13.789Z,70.30
2019-01-04T01:53:47.609Z,70.20
2019-01-04T01:56:19.479Z,70.50
2019-01-04T01:58:49.797Z,70.50
2019-01-04T02:01:20.242Z,70.50
2019-01-04T02:03:50.625Z,70.60
2019-01-04T02:06:20.945Z,70.90
2019-01-04T02:08:51.289Z,70.60
2019-01-04T02:11:21.665Z,70.50
2019-01-04T02:13:51.975Z,70.80
2019-01-04T02:16:22.353Z,70.90
2019-01-04T02:18:52.745Z,70.60
2019-01-04T02:21:23.071Z,70.80
2019-01-04T02:23:53.405Z,70.80
2019-01-04T02:26:23.701Z,70.60
2019-01-04T02:28:54.001Z,70.60
2019-01-04T02:31:24.278Z,70.50
2019-01-04T02:33:54.610Z,70.80
2019-01-04T02:36:24.921Z,70.60
2019-01-04T02:38:55.269Z,70.80
2019-01-04T02:41:25.625Z,70.80
2019-01-04T02:43:55.935Z,70.60
2019-01-04T02:46:26.275Z,70.80
2019-01-04T02:48:56.713Z,70.60
2019-01-04T02:51:27.077Z,70.80
2019-01-04T02:53:57.417Z,70.70
2019-01-04T02:56:28.321Z,70.50
2019-01-04T02:58:58.681Z,70.40
2019-01-04T03:01:28.981Z,70.60
2019-01-04T03:03:59.322Z,70.80
2019-01-04T03:06:29.681Z,70.60
2019-01-04T03:09:00.011Z,70.20
2019-01-04T03:11:30.354Z,70.40
2019-01-04T03:14:01.732Z,70.30
2019-01-04T03:16:32.202Z,70.20
2019-01-04T03:19:02.496Z,70.30
2019-01-04T03:21:32.809Z,70.00
2019-01-04T03:24:03.101Z,70.20
2019-01-04T03:26:34.061Z,70.20
2019-01-04T03:29:04.428Z,70.30
2019-01-04T03:31:34.760Z,70.30
2019-01-04T03:34:05.037Z,70.60
2019-01-04T03:36:35.369Z,70.60
2019-01-04T03:39:06.047Z,70.80
2019-01-04T03:41:36.487Z,71.10
2019-01-04T03:44:06.828Z,71.10
2019-01-04T03:46:37.161Z,71.20
2019-01-04T03:49:07.566Z,71.20
2019-01-04T03:51:37.857Z,71.40
2019-01-04T03:54:08.199Z,71.40
2019-01-04T03:56:39.016Z,71.40
2019-01-04T03:59:09.342Z,71.20
2019-01-04T04:01:39.689Z,71.10
2019-01-04T04:04:09.990Z,71.10
2019-01-04T04:06:41.423Z,71.20
2019-01-04T04:09:11.702Z,71.40
2019-01-04T04:11:42.041Z,71.60
2019-01-04T04:14:12.339Z,71.80
2019-01-04T04:16:42.717Z,72.10
2019-01-04T04:19:13.021Z,72.50
2019-01-04T04:21:43.345Z,72.70
2019-01-04T04:24:13.686Z,72.70
2019-01-04T04:26:44.309Z,73.10
2019-01-04T04:29:14.681Z,73.30
2019-01-04T04:31:45.046Z,73.30
2019-01-04T04:34:15.377Z,73.40
2019-01-04T04:36:45.853Z,73.70
2019-01-04T04:39:16.166Z,73.90
2019-01-04T04:41:46.457Z,74.30
2019-01-04T04:44:16.838Z,74.60
2019-01-04T04:46:47.137Z,75.10
2019-01-04T04:49:17.465Z,75.30
2019-01-04T04:51:47.879Z,75.60
2019-01-04T04:54:18.209Z,75.90
2019-01-04T04:56:49.872Z,76.10
2019-01-04T04:59:20.249Z,76.40
2019-01-04T05:01:50.559Z,76.70
2019-01-04T05:04:20.922Z,77.20
2019-01-04T05:06:51.262Z,77.60
2019-01-04T05:09:21.598Z,77.70
2019-01-04T05:11:51.989Z,77.90
2019-01-04T05:14:22.325Z,78.80
2019-01-04T05:16:52.767Z,78.40
2019-01-04T05:19:23.171Z,78.90
2019-01-04T05:21:53.498Z,79.10
2019-01-04T05:24:23.786Z,79.40
2019-01-04T05:26:55.590Z,79.80
2019-01-04T05:29:25.906Z,80.20
2019-01-04T05:31:56.253Z,80.50
2019-01-04T05:34:26.563Z,80.80
2019-01-04T05:36:56.930Z,80.90
2019-01-04T05:39:27.210Z,81.10
2019-01-04T05:41:57.549Z,81.30
2019-01-04T05:44:27.851Z,81.60
2019-01-04T05:46:58.205Z,81.90
2019-01-04T05:49:28.563Z,82.30
2019-01-04T05:51:58.932Z,82.50
2019-01-04T05:54:29.214Z,82.80
2019-01-04T05:57:00.624Z,82.90
2019-01-04T05:59:30.931Z,83.50
2019-01-04T06:02:02.349Z,83.50
2019-01-04T06:04:32.650Z,83.90
2019-01-04T06:07:02.973Z,84.30
2019-01-04T06:09:33.255Z,84.30
2019-01-04T06:12:03.587Z,85.10
2019-01-04T06:14:34.223Z,85.00
2019-01-04T06:17:04.659Z,85.20
2019-01-04T06:19:34.961Z,85.50
2019-01-04T06:22:05.289Z,85.70
2019-01-04T06:24:35.629Z,86.10
2019-01-04T06:27:07.117Z,86.30
2019-01-04T06:29:37.481Z,86.30
2019-01-04T06:32:08.175Z,86.80
2019-01-04T06:34:38.501Z,86.70
2019-01-04T06:37:08.871Z,86.90
2019-01-04T06:39:39.209Z,87.20
2019-01-04T06:42:09.549Z,88.00
2019-01-04T06:44:39.895Z,88.10
2019-01-04T06:47:18.106Z,87.80
2019-01-04T06:49:49.593Z,88.00
2019-01-04T06:52:21.689Z,88.00
2019-01-04T06:55:28.836Z,87.80
2019-01-04T06:58:00.369Z,88.10
2019-01-04T07:00:30.713Z,88.00
2019-01-04T07:03:01.003Z,88.00
2019-01-04T07:05:31.823Z,88.00
2019-01-04T07:08:02.225Z,88.00
2019-01-04T07:10:32.645Z,88.00
2019-01-04T07:13:03.017Z,88.20
2019-01-04T07:15:33.378Z,88.40
2019-01-04T07:18:03.859Z,88.20
2019-01-04T07:20:34.221Z,88.00
2019-01-04T07:23:04.581Z,87.50
2019-01-04T07:25:34.959Z,87.10
2019-01-04T07:28:06.206Z,86.70
2019-01-04T07:30:36.605Z,86.80
2019-01-04T07:33:07.067Z,86.60
2019-01-04T07:35:37.507Z,86.30
2019-01-04T07:38:07.931Z,86.20
2019-01-04T07:40:38.389Z,86.40
2019-01-04T07:43:08.859Z,86.40
2019-01-04T07:45:39.316Z,86.30
2019-01-04T07:48:09.795Z,86.90
2019-01-04T07:50:40.281Z,86.30
2019-01-04T07:53:10.794Z,86.30
2019-01-04T07:55:41.266Z,86.40
2019-01-04T07:58:12.465Z,86.60
2019-01-04T08:00:42.801Z,86.50
2019-01-04T08:03:22.519Z,86.30
2019-01-04T08:05:56.281Z,86.20
2019-01-04T08:08:26.617Z,85.70
2019-01-04T08:10:56.969Z,85.10
2019-01-04T08:13:27.313Z,85.00
2019-01-04T08:15:58.709Z,85.90
2019-01-04T08:18:29.125Z,84.50
2019-01-04T08:20:59.507Z,84.20
2019-01-04T08:23:30.901Z,84.00
2019-01-04T08:26:01.261Z,84.00
2019-01-04T08:28:32.825Z,84.20
2019-01-04T08:31:03.140Z,84.50
2019-01-04T08:33:33.639Z,85.50
2019-01-04T08:36:03.965Z,86.30
2019-01-04T08:38:34.416Z,85.90
2019-01-04T08:41:04.731Z,85.90
2019-01-04T08:43:35.063Z,85.90
2019-01-04T08:46:05.369Z,86.00
2019-01-04T08:48:35.733Z,86.00
2019-01-04T08:51:06.117Z,85.90
2019-01-04T08:54:01.452Z,86.10
2019-01-04T08:56:34.321Z,86.50
2019-01-04T08:59:05.841Z,86.80
2019-01-04T09:01:36.165Z,86.70
2019-01-04T09:04:06.531Z,86.70
2019-01-04T09:06:36.866Z,87.20
2019-01-04T09:09:08.105Z,86.80
2019-01-04T09:11:38.477Z,87.40
2019-01-04T09:14:08.821Z,87.60
2019-01-04T09:16:39.130Z,87.90
2019-01-04T09:19:09.503Z,87.60
2019-01-04T09:21:39.825Z,87.40
2019-01-04T09:24:10.245Z,87.30
2019-01-04T09:26:40.550Z,87.10
2019-01-04T09:29:14.471Z,87.10
2019-01-04T09:31:44.791Z,86.60
2019-01-04T09:34:15.173Z,86.20
2019-01-04T09:36:45.481Z,85.40
2019-01-04T09:39:15.831Z,84.90
2019-01-04T09:42:10.846Z,84.10
2019-01-04T09:44:41.626Z,82.80
2019-01-04T09:47:11.935Z,83.20
2019-01-04T09:49:42.291Z,83.10
2019-01-04T09:52:12.602Z,82.00
2019-01-04T09:54:42.945Z,82.10
2019-01-04T09:57:13.273Z,81.50
2019-01-04T09:59:45.081Z,81.60
2019-01-04T10:02:15.447Z,80.90
2019-01-04T10:04:45.765Z,79.90
2019-01-04T10:07:16.117Z,79.30
2019-01-04T10:09:46.443Z,78.60
2019-01-04T10:12:16.781Z,78.20
2019-01-04T10:14:47.083Z,77.10
2019-01-04T10:17:17.429Z,76.80
2019-01-04T10:19:47.818Z,76.70
2019-01-04T10:22:18.189Z,75.90
2019-01-04T10:24:48.604Z,75.70
2019-01-04T10:27:18.927Z,75.90
2019-01-04T10:29:49.885Z,75.60
2019-01-04T10:32:20.262Z,75.40
2019-01-04T10:34:50.649Z,75.60
2019-01-04T10:37:21.016Z,75.80
2019-01-04T10:39:51.366Z,75.70
2019-01-04T10:42:21.721Z,75.90
2019-01-04T10:44:52.093Z,75.20
2019-01-04T10:47:22.465Z,75.20
2019-01-04T10:49:52.761Z,75.40
2019-01-04T10:52:24.092Z,75.30
2019-01-04T10:54:54.451Z,75.30
2019-01-04T10:57:24.899Z,75.30
2019-01-04T10:59:56.661Z,75.10
2019-01-04T11:02:27.014Z,74.80
2019-01-04T11:04:57.501Z,74.70
2019-01-04T11:07:27.857Z,74.70
2019-01-04T11:09:58.209Z,74.80
2019-01-04T11:12:28.600Z,75.20
2019-01-04T11:14:58.973Z,75.40
2019-01-04T11:17:29.405Z,76.00
2019-01-04T11:19:59.754Z,76.20
2019-01-04T11:23:08.733Z,76.50
2019-01-04T11:26:04.430Z,77.80
2019-01-04T11:28:59.305Z,78.40
2019-01-04T11:32:01.849Z,78.60
2019-01-04T11:34:57.770Z,79.70
2019-01-04T11:37:51.745Z,81.00
2019-01-04T11:40:38.949Z,82.00
2019-01-04T11:43:50.655Z,81.80
2019-01-04T11:46:45.569Z,82.60
2019-01-04T11:49:35.477Z,84.30
2019-01-04T11:52:34.149Z,84.40
2019-01-04T11:55:04.647Z,85.10
2019-01-04T11:57:35.371Z,86.20
2019-01-04T12:00:08.344Z,86.70
2019-01-04T12:02:39.949Z,87.00
2019-01-04T12:05:12.039Z,87.60
2019-01-04T12:07:42.516Z,88.10
2019-01-04T12:10:12.869Z,87.90
2019-01-04T12:12:43.255Z,88.50
2019-01-04T12:15:13.673Z,88.80
2019-01-04T12:17:43.979Z,88.50
2019-01-04T12:20:14.389Z,89.30
2019-01-04T12:22:44.681Z,89.90
2019-01-04T12:25:15.057Z,90.10
2019-01-04T12:27:45.433Z,90.20
2019-01-04T12:30:15.781Z,90.30
2019-01-04T12:32:47.393Z,90.80
2019-01-04T12:35:17.791Z,90.90
2019-01-04T12:37:48.095Z,91.20
2019-01-04T12:40:18.437Z,91.30
2019-01-04T12:42:48.789Z,91.40
2019-01-04T12:45:19.135Z,91.60
2019-01-04T12:47:49.441Z,91.50
2019-01-04T12:50:19.741Z,91.30
2019-01-04T12:52:51.254Z,91.70
2019-01-04T12:55:21.695Z,91.50
2019-01-04T12:57:52.083Z,91.50
2019-01-04T13:00:22.438Z,91.60
2019-01-04T13:02:53.549Z,91.50
2019-01-04T13:05:23.859Z,91.60
2019-01-04T13:07:54.261Z,92.00
2019-01-04T13:10:24.681Z,92.20
2019-01-04T13:12:55.033Z,92.10
2019-01-04T13:15:25.419Z,92.40
2019-01-04T13:17:55.838Z,92.70
2019-01-04T13:20:26.209Z,92.80
2019-01-04T13:22:56.560Z,92.70
2019-01-04T13:25:26.873Z,93.00
2019-01-04T13:27:57.269Z,93.40
2019-01-04T13:30:29.840Z,93.40
2019-01-04T13:33:01.525Z,93.50
2019-01-04T13:35:31.917Z,93.50
2019-01-04T13:38:02.291Z,93.70
2019-01-04T13:40:32.713Z,94.10
2019-01-04T13:43:03.163Z,94.00
2019-01-04T13:45:33.537Z,94.20
2019-01-04T13:48:03.897Z,94.30
2019-01-04T13:50:34.234Z,94.40
2019-01-04T13:53:04.597Z,94.40
2019-01-04T13:55:34.930Z,94.70
2019-01-04T13:58:05.299Z,94.90
2019-01-04T14:00:35.741Z,95.20
2019-01-04T14:03:10.833Z,95.50
2019-01-04T14:05:41.203Z,95.50
2019-01-04T14:08:11.615Z,95.50
2019-01-04T14:10:41.965Z,95.70
2019-01-04T14:13:12.309Z,96.00
2019-01-04T14:15:42.671Z,95.90
2019-01-04T14:18:13.161Z,96.50
2019-01-04T14:20:43.548Z,96.50
2019-01-04T14:23:13.907Z,96.80
2019-01-04T14:25:44.221Z,96.70
2019-01-04T14:28:14.614Z,96.60
2019-01-04T14:30:44.953Z,96.70
2019-01-04T14:33:16.673Z,96.80
2019-01-04T14:35:47.029Z,96.70
2019-01-04T14:38:17.389Z,96.40
2019-01-04T14:40:47.815Z,96.60
2019-01-04T14:43:18.170Z,96.80
2019-01-04T14:45:48.497Z,96.80
2019-01-04T14:48:18.840Z,96.60
2019-01-04T14:50:49.156Z,96.70
2019-01-04T14:53:19.550Z,96.70
2019-01-04T14:55:49.893Z,96.70
2019-01-04T14:58:20.295Z,96.60
2019-01-04T15:00:50.621Z,96.80
2019-01-04T15:03:22.277Z,96.80
2019-01-04T15:05:53.593Z,96.70
2019-01-04T15:08:23.937Z,96.70
2019-01-04T15:10:54.286Z,97.00
2019-01-04T15:13:24.609Z,96.90
2019-01-04T15:15:55.079Z,97.00
2019-01-04T15:18:26.311Z,97.10
2019-01-04T15:20:56.827Z,97.10
2019-01-04T15:23:27.137Z,97.00
2019-01-04T15:25:57.489Z,97.00
2019-01-04T15:28:27.892Z,97.10
2019-01-04T15:30:58.252Z,97.10
2019-01-04T15:33:28.913Z,97.10
2019-01-04T15:35:59.413Z,97.20
2019-01-04T15:38:36.059Z,97.40
2019-01-04T15:41:02.287Z,97.40
2019-01-04T15:43:32.669Z,97.40
2019-01-04T15:46:03.050Z,97.30
2019-01-04T15:48:33.414Z,97.50
2019-01-04T15:51:03.826Z,97.30
2019-01-04T15:53:34.215Z,97.40
2019-01-04T15:56:04.601Z,97.50
2019-01-04T15:58:34.953Z,97.50
2019-01-04T16:01:05.371Z,97.40
2019-01-04T16:03:36.173Z,97.40
2019-01-04T16:06:06.541Z,97.20
2019-01-04T16:08:36.875Z,97.20
2019-01-04T16:11:07.177Z,97.00
2019-01-04T16:13:37.598Z,97.00
2019-01-04T16:16:07.968Z,97.20
2019-01-04T16:18:40.251Z,97.00
2019-01-04T16:21:10.667Z,97.10
2019-01-04T16:23:41.113Z,97.20
2019-01-04T16:26:11.507Z,97.10
2019-01-04T16:28:41.856Z,97.10
2019-01-04T16:31:12.291Z,97.10
2019-01-04T16:33:43.409Z,97.50
2019-01-04T16:36:13.786Z,97.40
2019-01-04T16:38:44.182Z,97.50
2019-01-04T16:41:14.545Z,97.70
2019-01-04T16:43:44.861Z,97.80
2019-01-04T16:46:15.317Z,97.80
2019-01-04T16:48:45.639Z,97.70
2019-01-04T16:51:16.107Z,98.00
2019-01-04T16:53:46.431Z,98.10
2019-01-04T16:56:16.801Z,98.30
2019-01-04T16:58:47.131Z,98.20
2019-01-04T17:01:17.493Z,98.10
2019-01-04T17:03:48.883Z,98.10
2019-01-04T17:06:19.217Z,98.20
2019-01-04T17:08:49.659Z,98.20
2019-01-04T17:11:20.031Z,98.20
2019-01-04T17:13:50.385Z,98.20
2019-01-04T17:16:20.707Z,98.40
2019-01-04T17:18:51.046Z,98.20
2019-01-04T17:21:21.357Z,98.20
2019-01-04T17:23:51.689Z,98.10
2019-01-04T17:26:22.054Z,98.20
2019-01-04T17:28:52.389Z,98.00
2019-01-04T17:31:22.795Z,98.30
2019-01-04T17:33:53.495Z,98.20
2019-01-04T17:36:23.854Z,98.00
2019-01-04T17:38:54.240Z,98.10
2019-01-04T17:41:24.543Z,98.40
2019-01-04T17:43:54.879Z,98.40
2019-01-04T17:46:25.305Z,98.30
2019-01-04T17:48:55.710Z,98.30
2019-01-04T17:51:26.045Z,98.40
2019-01-04T17:53:56.372Z,98.50
2019-01-04T17:56:26.708Z,98.50
2019-01-04T17:58:57.042Z,98.60
2019-01-04T18:01:27.377Z,98.50
2019-01-04T18:03:59.295Z,98.60
2019-01-04T18:06:29.630Z,98.40
2019-01-04T18:09:01.028Z,98.40
2019-01-04T18:11:32.023Z,98.50
2019-01-04T18:14:02.347Z,98.50
2019-01-04T18:16:32.668Z,98.50
2019-01-04T18:19:03.046Z,98.60
2019-01-04T18:21:33.420Z,98.50
2019-01-04T18:24:03.839Z,98.40
2019-01-04T18:26:34.276Z,98.70
2019-01-04T18:29:04.695Z,98.90
2019-01-04T18:31:35.134Z,98.80
2019-01-04T18:34:06.550Z,98.80
2019-01-04T18:36:36.912Z,98.80
2019-01-04T18:39:07.850Z,98.80
2019-01-04T18:41:38.183Z,98.60
2019-01-04T18:44:08.502Z,98.60
2019-01-04T18:46:38.816Z,98.70
2019-01-04T18:49:09.170Z,99.00
2019-01-04T18:51:39.513Z,99.00
2019-01-04T18:54:09.839Z,98.90
2019-01-04T18:56:40.165Z,98.90
2019-01-04T18:59:10.523Z,98.80
2019-01-04T19:01:40.915Z,98.70
2019-01-04T19:04:11.795Z,98.70
2019-01-04T19:06:42.192Z,98.60
2019-01-04T19:09:12.620Z,98.30
2019-01-04T19:11:43.564Z,98.50
2019-01-04T19:14:14.051Z,98.70
2019-01-04T19:16:44.397Z,98.80
2019-01-04T19:19:14.740Z,98.60
2019-01-04T19:21:45.110Z,98.80
2019-01-04T19:24:15.494Z,98.80
2019-01-04T19:26:45.871Z,99.10
2019-01-04T19:29:17.309Z,99.30
2019-01-04T19:31:47.726Z,99.30
2019-01-04T19:34:18.680Z,99.40
2019-01-04T19:36:49.007Z,99.50
2019-01-04T19:39:19.360Z,99.50
2019-01-04T19:41:49.744Z,99.60
2019-01-04T19:44:20.118Z,99.70
2019-01-04T19:46:50.449Z,99.90
2019-01-04T19:49:20.757Z,99.80
2019-01-04T19:51:51.076Z,99.80
2019-01-04T19:54:21.416Z,99.70
2019-01-04T19:56:52.337Z,99.90
2019-01-04T19:59:22.662Z,99.90
2019-01-04T20:01:52.994Z,99.90
2019-01-04T20:04:25.770Z,99.90
2019-01-04T20:07:52.976Z,99.90
2019-01-04T20:11:33.178Z,99.90
2019-01-04T20:15:14.579Z,99.90
2019-01-04T20:18:06.174Z,99.90
2019-01-04T20:20:56.817Z,99.90
2019-01-04T20:23:58.217Z,99.90
2019-01-04T20:27:05.589Z,99.90
2019-01-04T20:29:53.723Z,99.90
2019-01-04T20:32:41.807Z,99.90
2019-01-04T20:35:37.969Z,99.90
2019-01-04T20:38:33.292Z,99.90
2019-01-04T20:41:31.262Z,99.90
2019-01-04T20:44:23.226Z,99.90
2019-01-04T20:47:22.756Z,99.90
2019-01-04T20:50:15.660Z,99.90
2019-01-04T20:53:03.865Z,99.90
2019-01-04T20:55:59.387Z,99.90
2019-01-04T20:59:06.869Z,99.90
2019-01-04T21:02:01.970Z,99.90
2019-01-04T21:04:50.085Z,99.90
2019-01-04T21:07:39.430Z,99.90
2019-01-04T21:10:31.186Z,99.90
2019-01-04T21:13:27.921Z,99.90
2019-01-04T21:16:35.423Z,99.90
2019-01-04T21:19:32.047Z,99.90
2019-01-04T21:22:36.414Z,99.90
2019-01-04T21:25:28.297Z,99.90
2019-01-04T21:28:16.149Z,99.90
2019-01-04T21:31:08.167Z,99.90
2019-01-04T21:33:56.982Z,99.90
2019-01-04T21:36:55.558Z,99.90
2019-01-04T21:39:46.351Z,99.90
2019-01-04T21:42:35.663Z,99.90
2019-01-04T21:45:24.767Z,99.90
2019-01-04T21:48:17.229Z,99.90
2019-01-04T21:51:12.450Z,99.90
2019-01-04T21:54:00.888Z,99.90
2019-01-04T21:57:03.274Z,99.90
2019-01-04T22:00:10.892Z,99.90
2019-01-04T22:02:58.821Z,99.90
2019-01-04T22:05:43.726Z,99.90
2019-01-04T22:08:39.356Z,99.90
2019-01-04T22:11:27.950Z,99.90
2019-01-04T22:14:18.058Z,99.90
2019-01-04T22:16:59.853Z,99.90
2019-01-04T22:19:47.738Z,99.90
2019-01-04T22:22:43.108Z,99.90
2019-01-04T22:25:44.230Z,99.90
2019-01-04T22:28:32.527Z,99.90
2019-01-04T22:31:20.698Z,99.90
2019-01-04T22:34:18.806Z,99.90
2019-01-04T22:37:10.865Z,99.90
2019-01-04T22:40:00.202Z,99.90
2019-01-04T22:43:02.988Z,99.90
2019-01-04T22:46:01.202Z,99.90
2019-01-04T22:49:05.626Z,99.90
2019-01-04T22:52:12.770Z,99.90
2019-01-04T22:55:17.398Z,99.90
2019-01-04T22:58:05.370Z,99.90
2019-01-04T23:01:11.245Z,99.90
2019-01-04T23:04:09.727Z,99.90
2019-01-04T23:07:10.869Z,99.90
2019-01-04T23:10:12.446Z,99.90
2019-01-04T23:13:02.689Z,99.90
2019-01-04T23:15:50.398Z,99.90
2019-01-04T23:18:39.702Z,99.90
2019-01-04T23:22:05.214Z,99.90
2019-01-04T23:24:54.514Z,99.90
2019-01-04T23:27:54.533Z,99.90
2019-01-04T23:30:43.817Z,99.90
2019-01-04T23:33:33.085Z,99.90
2019-01-04T23:36:27.909Z,99.90
2019-01-04T23:39:29.517Z,99.90
2019-01-04T23:42:21.903Z,99.90
2019-01-04T23:45:10.105Z,99.90
2019-01-04T23:48:05.807Z,99.90
2019-01-04T23:50:47.901Z,99.90
2019-01-04T23:53:35.884Z,99.90
2019-01-04T23:56:41.198Z,99.90
2019-01-04T23:59:29.470Z,99.90
